CTC2 weather

St-Alphonse/Lac Cloutier Seaplane Base
Saint-Alphonse, Quebec, Canada

Public forecast

Using degrees Celsius for public forecast. Weather courtesy of forecast.io.

METAR (pilot weather report)

Closest report is Montreal International (Mirabel) Airport, 34.7 nm (64.3 km) SSW. Retrieved 2019/07/21 18:00 UTC (25 minutes ago):

CYMX 211800Z 27007KT 220V300 45SM FEW040 FEW110 FEW260 28/18 A2972 RMK CU1AC1CI1 CI TR SLP064 DENSITY ALT 2100FT

TAF (pilot weather forecast)

Closest forecast is Montreal International (Mirabel) Airport, 34.7 nm (64.3 km) SSW. Retrieved 2019/07/21 18:48 UTC (0 seconds ago):

TAF TAF CYMX 211744Z 2118/2218 28007KT P6SM SCT020 BKN070 TEMPO 2118/2124 P6SM -SHRA BKN020 OVC070 FM220000 31005KT P6SM FEW030 BKN100 FM220300 VRB03KT P6SM SCT080 FM221000 02005KT P6SM BKN060 OVC240 RMK NXT FCST BY 220000Z